Time;durP1;ratioP1;P1;durP2;ratioP2;P2;SDS_P1;SDS_P2;PMS_P1;PMS_P2;Temp;Humidity;BMP_temperature;BMP_pressure;BME280_temperature;BME280_humidity;BME280_pressure;Samples;Min_cycle;Max_cycle;Signal;HPM_P1;HPM_P2
2022/10/20 00:00:54;;;;;;;9.27;4.85;;;;;;;12.94;72.33;100805.72;5067165;28;20360;-75
2022/10/20 00:03:20;;;;;;;6.85;4.15;;;;;;;13.23;71.13;100878.56;5066289;28;20111;-74
2022/10/20 00:05:45;;;;;;;7.40;4.28;;;;;;;13.07;70.52;100827.66;5062901;28;20041;-74
2022/10/20 00:08:10;;;;;;;8.80;4.95;;;;;;;13.18;70.09;100862.75;5067569;28;20539;-74
2022/10/20 00:10:36;;;;;;;11.98;4.05;;;;;;;13.05;70.79;100853.13;5067832;28;20017;-76
2022/10/20 00:13:01;;;;;;;6.07;3.47;;;;;;;13.37;69.42;100915.41;5065802;28;20055;-75
2022/10/20 00:15:27;;;;;;;10.93;3.65;;;;;;;12.64;68.81;100780.38;5066811;28;20040;-75
2022/10/20 00:17:52;;;;;;;9.93;3.33;;;;;;;13.29;68.85;100900.50;5067263;28;20476;-75
2022/10/20 00:20:18;;;;;;;11.02;3.65;;;;;;;13.26;69.35;100907.53;5051972;28;20052;-76
2022/10/20 00:22:43;;;;;;;7.15;4.07;;;;;;;13.21;68.91;100909.31;5047304;28;20514;-75
2022/10/20 00:25:09;;;;;;;13.35;4.47;;;;;;;13.21;69.06;100907.53;5048528;28;20064;-77
2022/10/20 00:27:34;;;;;;;6.65;3.45;;;;;;;13.17;68.01;100921.59;5067299;28;20045;-76
2022/10/20 00:30:00;;;;;;;5.68;3.53;;;;;;;13.13;67.30;100914.56;5065267;28;20466;-75
2022/10/20 00:32:26;;;;;;;12.45;4.25;;;;;;;12.86;67.29;100866.34;5068607;28;20503;-75
2022/10/20 00:34:51;;;;;;;7.38;4.38;;;;;;;13.22;67.73;100919.81;5068201;28;20494;-77
2022/10/20 00:37:16;;;;;;;6.43;3.42;;;;;;;13.23;66.67;100926.84;5067755;28;20066;-77
2022/10/20 00:39:42;;;;;;;9.40;3.33;;;;;;;12.50;66.70;100793.56;5067078;28;20041;-77
2022/10/20 00:42:13;;;;;;;7.15;3.58;;;;;;;12.62;66.86;100830.41;5065443;28;20172;-76
2022/10/20 00:44:54;;;;;;;8.13;3.75;;;;;;;12.98;66.90;100893.53;5047102;28;20103;-76
2022/10/20 00:47:36;;;;;;;12.77;3.95;;;;;;;13.16;66.77;100924.22;5065798;28;20036;-75
2022/10/20 00:50:12;;;;;;;7.03;3.78;;;;;;;13.11;66.44;100926.91;5059086;28;20044;-75
2022/10/20 00:52:39;;;;;;;7.47;3.63;;;;;;;12.65;66.10;100837.41;5067549;28;20028;-76
2022/10/20 00:55:08;;;;;;;6.95;3.33;;;;;;;12.45;66.16;100801.50;5066302;28;20056;-77
2022/10/20 00:57:34;;;;;;;13.20;4.25;;;;;;;12.99;66.04;100913.72;5066773;28;20595;-76
2022/10/20 01:00:00;;;;;;;5.55;3.08;;;;;;;13.13;66.13;100921.59;5064120;28;20087;-76
2022/10/20 01:02:26;;;;;;;9.07;3.55;;;;;;;13.15;65.64;100941.78;5064352;28;20060;-74
2022/10/20 01:04:51;;;;;;;6.18;3.03;;;;;;;13.21;65.88;100941.78;5066641;28;20123;-74
2022/10/20 01:07:17;;;;;;;7.78;2.90;;;;;;;13.18;65.24;100935.63;5067454;28;20040;-74
2022/10/20 01:09:43;;;;;;;6.32;3.75;;;;;;;12.38;65.92;100804.97;5067246;28;20036;-76
2022/10/20 01:12:26;;;;;;;4.88;3.17;;;;;;;13.12;65.59;100917.22;5065844;28;20035;-75
2022/10/20 01:14:56;;;;;;;13.43;3.75;;;;;;;13.24;65.91;100935.63;5064527;28;20053;-75
2022/10/20 01:17:52;;;;;;;10.40;3.97;;;;;;;13.00;67.19;100957.66;5047883;28;20082;-76
2022/10/20 01:20:22;;;;;;;7.55;3.60;;;;;;;13.10;66.33;100949.72;5072479;28;20040;-75
2022/10/20 01:23:06;;;;;;;13.63;4.03;;;;;;;13.07;66.38;100947.09;5087074;28;20024;-74
2022/10/20 01:26:02;;;;;;;7.22;4.05;;;;;;;12.85;65.43;100943.63;5069680;28;20066;-76
2022/10/20 01:28:41;;;;;;;9.57;3.20;;;;;;;12.97;65.25;100947.09;5086456;28;20071;-75
2022/10/20 01:31:37;;;;;;;12.63;4.30;;;;;;;12.72;65.76;100954.16;5078596;28;20060;-74
2022/10/20 01:34:17;;;;;;;6.28;3.33;;;;;;;12.51;66.14;100907.63;5063743;28;20071;-76
2022/10/20 01:37:15;;;;;;;7.38;4.30;;;;;;;12.14;65.76;100833.94;5046503;28;20056;-75
2022/10/20 01:39:57;;;;;;;8.13;3.03;;;;;;;12.94;65.52;100957.63;5046319;28;20121;-76
2022/10/20 01:42:25;;;;;;;9.02;3.45;;;;;;;11.98;65.89;100810.25;5051838;28;20098;-75
2022/10/20 01:44:54;;;;;;;6.63;3.20;;;;;;;12.90;65.80;100951.50;5070123;28;20068;-75
2022/10/20 01:47:23;;;;;;;8.20;4.20;;;;;;;12.22;65.33;100851.50;5067350;28;20048;-76
2022/10/20 01:49:50;;;;;;;7.50;3.92;;;;;;;12.60;65.67;100960.28;5068035;28;20035;-75
2022/10/20 01:52:16;;;;;;;8.77;4.43;;;;;;;11.88;66.23;100820.78;5070506;28;20040;-75
2022/10/20 01:54:41;;;;;;;8.65;3.95;;;;;;;12.69;66.82;100962.94;5069271;28;20044;-75
2022/10/20 01:57:19;;;;;;;5.47;3.25;;;;;;;12.81;66.35;100969.97;5069524;28;20044;-73
2022/10/20 02:00:07;;;;;;;11.32;4.82;;;;;;;12.77;66.26;100971.69;5070021;28;20032;-74
2022/10/20 02:02:54;;;;;;;16.20;4.93;;;;;;;12.80;66.51;100971.69;5069753;28;20504;-75
2022/10/20 02:05:38;;;;;;;7.35;3.60;;;;;;;12.82;66.49;100982.22;5050161;28;20487;-75
2022/10/20 02:08:12;;;;;;;7.82;4.45;;;;;;;12.73;66.03;100977.81;5069711;28;20131;-74
2022/10/20 02:10:45;;;;;;;10.93;3.75;;;;;;;11.34;65.52;100736.53;5070656;28;20041;-74
2022/10/20 02:13:11;;;;;;;7.60;4.13;;;;;;;12.70;66.35;100972.56;5068346;28;20037;-74
2022/10/20 02:15:41;;;;;;;12.43;4.38;;;;;;;12.64;66.46;100975.19;5071744;28;20128;-75
2022/10/20 02:18:09;;;;;;;11.50;4.13;;;;;;;11.90;67.78;100854.09;5088574;28;20051;-74
2022/10/20 02:20:35;;;;;;;4.80;2.60;;;;;;;12.63;66.67;100998.00;5051384;28;20041;-75
2022/10/20 02:23:03;;;;;;;7.90;3.53;;;;;;;12.63;66.62;100989.25;5052330;28;20427;-75
2022/10/20 02:25:29;;;;;;;7.63;3.70;;;;;;;12.38;65.97;100939.19;5090478;28;20032;-76
2022/10/20 02:27:59;;;;;;;6.28;3.47;;;;;;;12.52;66.01;100960.25;5089271;28;20040;-76
2022/10/20 02:30:24;;;;;;;10.07;4.32;;;;;;;11.92;66.06;100856.72;5089219;28;20135;-76
2022/10/20 02:32:51;;;;;;;12.38;3.85;;;;;;;12.58;66.43;100983.97;5070722;28;20527;-76
2022/10/20 02:35:28;;;;;;;13.65;4.80;;;;;;;11.95;66.00;100875.13;5069575;28;20051;-77
2022/10/20 02:37:54;;;;;;;7.72;3.03;;;;;;;11.72;65.90;100856.63;5069128;28;20024;-75
2022/10/20 02:40:21;;;;;;;9.35;4.10;;;;;;;11.77;65.92;100881.19;5050016;28;20048;-76
2022/10/20 02:42:47;;;;;;;15.52;3.78;;;;;;;11.62;66.66;100880.28;5062019;28;20040;-76
2022/10/20 02:45:12;;;;;;;13.95;3.72;;;;;;;12.22;67.61;101011.09;5069368;28;20051;-76
2022/10/20 02:47:38;;;;;;;8.23;4.43;;;;;;;12.08;67.10;100958.47;5068887;28;20036;-76
2022/10/20 02:50:04;;;;;;;12.80;4.88;;;;;;;12.35;67.38;101017.28;5060777;28;20044;-75
2022/10/20 02:52:30;;;;;;;9.27;4.32;;;;;;;11.52;67.70;100869.72;5068575;28;20060;-74
2022/10/20 02:54:55;;;;;;;10.20;3.65;;;;;;;12.40;68.16;101024.28;5068262;28;20755;-77
2022/10/20 02:57:21;;;;;;;6.40;3.47;;;;;;;11.94;67.19;100994.34;5072132;28;20041;-75
2022/10/20 02:59:46;;;;;;;8.93;3.80;;;;;;;12.08;67.52;101005.81;5050846;28;20029;-75
2022/10/20 03:02:11;;;;;;;7.07;3.90;;;;;;;12.15;68.17;101026.00;5068748;28;20036;-74
2022/10/20 03:04:37;;;;;;;13.68;4.47;;;;;;;11.23;68.68;100880.97;5067794;28;20035;-76
2022/10/20 03:07:02;;;;;;;7.75;3.72;;;;;;;11.85;68.64;101003.06;5068843;28;20044;-77
2022/10/20 03:09:28;;;;;;;7.40;3.85;;;;;;;12.08;68.73;101033.84;5068130;28;20032;-76
2022/10/20 03:12:00;;;;;;;16.83;6.47;;;;;;;11.32;68.88;100895.91;5068276;28;20029;-75
2022/10/20 03:14:26;;;;;;;9.23;4.13;;;;;;;11.05;69.92;100908.06;5068120;28;20412;-74
2022/10/20 03:16:51;;;;;;;7.03;4.10;;;;;;;11.83;69.56;101034.59;5068195;28;20359;-75
2022/10/20 03:19:17;;;;;;;8.80;4.85;;;;;;;11.93;68.81;101043.44;5068537;28;20123;-75
2022/10/20 03:21:42;;;;;;;11.65;5.18;;;;;;;11.74;69.13;101031.91;5070028;28;20075;-76
2022/10/20 03:24:08;;;;;;;19.27;4.20;;;;;;;11.81;69.87;101035.47;5087783;28;20786;-76
2022/10/20 03:26:33;;;;;;;11.07;3.72;;;;;;;11.59;69.37;101016.94;5088150;28;20047;-75
2022/10/20 03:28:58;;;;;;;9.63;4.63;;;;;;;11.71;70.12;101054.69;5069539;28;20738;-74
2022/10/20 03:31:24;;;;;;;8.15;4.25;;;;;;;10.99;70.30;100956.13;5057573;28;20055;-75
2022/10/20 03:33:49;;;;;;;10.43;4.28;;;;;;;11.58;70.33;101061.63;5086914;28;20055;-75
2022/10/20 03:36:15;;;;;;;16.55;5.50;;;;;;;11.59;70.63;101059.00;5070163;28;20492;-75
2022/10/20 03:38:42;;;;;;;8.88;4.32;;;;;;;10.91;71.29;100928.06;5068019;28;20472;-75
2022/10/20 03:41:07;;;;;;;17.77;6.05;;;;;;;10.93;71.57;100945.59;5067965;28;20036;-76
2022/10/20 03:43:33;;;;;;;15.20;5.40;;;;;;;10.72;72.41;100942.78;5066934;28;20029;-76
2022/10/20 03:46:04;;;;;;;9.38;4.57;;;;;;;10.64;72.79;100944.50;5076816;28;20047;-75
2022/10/20 03:48:29;;;;;;;9.32;4.72;;;;;;;11.15;73.06;101035.91;5088104;28;20051;-76
2022/10/20 03:50:55;;;;;;;7.00;3.95;;;;;;;10.52;73.70;100968.88;5062384;28;20084;-76
2022/10/20 03:53:20;;;;;;;7.95;4.13;;;;;;;10.66;73.46;100975.13;5067922;28;20036;-75
2022/10/20 03:55:45;;;;;;;8.32;4.72;;;;;;;10.39;74.49;100978.38;5074000;28;20080;-75
2022/10/20 03:58:11;;;;;;;13.10;4.97;;;;;;;11.02;74.53;101083.94;5086156;28;20105;-76
2022/10/20 04:00:37;;;;;;;7.22;4.72;;;;;;;10.61;74.94;101057.31;5069505;28;20040;-77
2022/10/20 04:03:02;;;;;;;11.30;4.68;;;;;;;10.83;74.85;101093.41;5087456;28;20032;-77
2022/10/20 04:05:28;;;;;;;9.23;4.75;;;;;;;10.31;75.01;101004.53;5087958;28;20690;-75
2022/10/20 04:07:53;;;;;;;11.23;5.13;;;;;;;10.82;74.83;101112.66;5086655;28;20527;-76
2022/10/20 04:10:19;;;;;;;15.90;5.43;;;;;;;9.90;75.26;100981.34;5049340;28;20040;-76
2022/10/20 04:12:44;;;;;;;7.75;4.18;;;;;;;10.84;74.54;101099.53;5079435;28;20131;-75
2022/10/20 04:15:10;;;;;;;6.55;4.50;;;;;;;10.85;75.33;101104.81;5087185;28;20471;-75
2022/10/20 04:17:36;;;;;;;9.82;5.72;;;;;;;10.79;74.98;101107.34;5086804;28;20044;-76
2022/10/20 04:20:03;;;;;;;20.27;6.68;;;;;;;10.74;74.65;101074.94;5070544;28;20119;-76
2022/10/20 04:22:28;;;;;;;9.50;5.07;;;;;;;10.88;73.23;101085.56;5067460;28;20028;-76
2022/10/20 04:24:54;;;;;;;10.43;4.60;;;;;;;10.88;73.61;101111.81;5057106;28;20507;-75
2022/10/20 04:27:19;;;;;;;11.20;5.72;;;;;;;10.95;72.88;101118.91;5058901;28;20039;-76
2022/10/20 04:29:46;;;;;;;10.48;4.47;;;;;;;10.94;72.03;101120.66;5079599;28;20089;-76
2022/10/20 04:32:11;;;;;;;7.00;4.53;;;;;;;10.05;71.49;100958.78;5068443;28;20063;-77
2022/10/20 04:34:37;;;;;;;9.02;4.28;;;;;;;10.90;71.83;101115.34;5046804;28;20036;-75
2022/10/20 04:37:02;;;;;;;7.97;4.93;;;;;;;10.01;70.89;100993.66;5066561;28;20033;-77
2022/10/20 04:39:28;;;;;;;11.77;4.47;;;;;;;10.41;70.60;101036.13;5064655;28;20043;-77
2022/10/20 04:41:53;;;;;;;10.95;6.45;;;;;;;10.38;70.72;101033.47;5062205;28;20057;-79
2022/10/20 04:44:19;;;;;;;10.90;5.30;;;;;;;10.85;70.33;101123.19;5068753;28;20055;-76
2022/10/20 04:46:44;;;;;;;20.17;4.85;;;;;;;10.80;70.39;101152.88;5086616;28;20031;-77
2022/10/20 04:49:10;;;;;;;9.63;5.80;;;;;;;10.33;70.43;101062.28;5058949;28;20028;-76
2022/10/20 04:51:35;;;;;;;6.10;4.60;;;;;;;10.26;70.34;101029.81;5058949;28;20496;-76
2022/10/20 04:54:01;;;;;;;12.35;4.93;;;;;;;10.59;70.89;101080.91;5044172;28;20827;-75
2022/10/20 04:56:26;;;;;;;18.63;6.43;;;;;;;10.70;70.64;101158.03;5065397;28;20063;-74
2022/10/20 04:58:54;;;;;;;13.60;5.15;;;;;;;10.60;71.43;101142.16;5041874;28;20063;-74
2022/10/20 05:01:21;;;;;;;9.70;4.25;;;;;;;10.91;71.13;101165.28;5063302;28;20028;-75
2022/10/20 05:03:47;;;;;;;11.63;4.47;;;;;;;10.96;70.85;101160.94;5065609;28;20033;-77
2022/10/20 05:06:24;;;;;;;11.70;4.15;;;;;;;10.97;70.66;101161.81;5064304;28;20052;-76
2022/10/20 05:08:53;;;;;;;12.18;4.78;;;;;;;10.67;71.37;101171.09;5064186;28;20115;-77
2022/10/20 05:11:20;;;;;;;14.90;6.03;;;;;;;10.15;71.83;101103.09;5063113;28;20044;-76
2022/10/20 05:13:46;;;;;;;13.98;4.72;;;;;;;10.07;71.59;101062.81;5065296;28;20469;-77
2022/10/20 05:16:12;;;;;;;10.35;4.63;;;;;;;10.90;71.74;101183.63;5069130;28;20039;-75
2022/10/20 05:18:39;;;;;;;7.82;3.88;;;;;;;10.25;70.94;101087.47;5067180;28;20044;-73
2022/10/20 05:21:13;;;;;;;14.02;4.60;;;;;;;10.73;70.98;101172.94;5067396;28;20056;-77
2022/10/20 05:23:39;;;;;;;10.05;3.60;;;;;;;10.87;70.91;101201.97;5066666;28;20043;-74
2022/10/20 05:26:08;;;;;;;15.82;4.32;;;;;;;10.76;71.44;101173.84;5057797;28;20348;-74
2022/10/20 05:28:34;;;;;;;9.27;4.40;;;;;;;9.71;71.73;100988.06;5064839;28;20064;-75
2022/10/20 05:31:01;;;;;;;8.82;4.45;;;;;;;11.11;70.29;101219.75;5062830;28;20476;-75
2022/10/20 05:33:27;;;;;;;19.75;4.95;;;;;;;11.16;70.69;101241.69;5055297;28;20103;-74
2022/10/20 05:35:52;;;;;;;12.50;3.85;;;;;;;10.55;71.43;101127.22;5064204;28;20151;-74
2022/10/20 05:38:18;;;;;;;17.83;3.92;;;;;;;10.96;71.65;101215.22;5066633;28;20569;-74
2022/10/20 05:40:43;;;;;;;14.27;4.35;;;;;;;10.45;70.44;101121.88;5070605;28;20422;-76
2022/10/20 05:43:09;;;;;;;6.80;3.58;;;;;;;10.09;70.81;101120.50;5059389;28;20044;-74
2022/10/20 05:45:34;;;;;;;6.82;3.00;;;;;;;10.40;71.01;101173.41;5054777;28;20048;-76
2022/10/20 05:47:59;;;;;;;8.23;3.50;;;;;;;10.84;70.97;101257.97;5056827;28;20068;-76
2022/10/20 05:50:25;;;;;;;13.13;5.88;;;;;;;10.98;71.78;101252.88;5057221;28;20938;-74
2022/10/20 05:52:50;;;;;;;6.07;3.35;;;;;;;10.37;71.25;101144.50;5060646;28;20528;-74
2022/10/20 05:55:16;;;;;;;6.95;2.80;;;;;;;10.65;71.13;101263.81;5056723;28;20051;-74
2022/10/20 05:57:42;;;;;;;10.20;2.85;;;;;;;10.03;71.54;101128.28;5074534;28;20151;-75
2022/10/20 06:00:08;;;;;;;12.65;4.65;;;;;;;10.13;71.26;101148.53;5066113;28;20538;-75
2022/10/20 06:02:33;;;;;;;7.07;3.17;;;;;;;10.08;71.67;101131.84;5072123;28;20078;-77
2022/10/20 06:04:59;;;;;;;8.45;4.13;;;;;;;10.77;71.60;101280.63;5066606;28;20396;-76
2022/10/20 06:07:24;;;;;;;10.23;3.65;;;;;;;10.09;72.36;101134.50;5067643;28;20025;-75
2022/10/20 06:09:50;;;;;;;13.93;2.97;;;;;;;10.99;71.95;101287.00;5084028;28;20066;-76
2022/10/20 06:12:15;;;;;;;8.57;3.33;;;;;;;10.43;70.46;101195.31;5085566;28;20082;-76
2022/10/20 06:14:41;;;;;;;12.70;2.95;;;;;;;10.34;70.33;101161.94;5085618;28;20044;-77
2022/10/20 06:17:06;;;;;;;19.73;4.22;;;;;;;11.04;71.32;101299.31;5074170;28;20033;-74
2022/10/20 06:19:32;;;;;;;12.45;3.40;;;;;;;10.99;70.39;101280.88;5062162;28;20029;-74
2022/10/20 06:21:57;;;;;;;14.07;3.95;;;;;;;10.61;71.29;101275.16;5048794;28;20567;-76
2022/10/20 06:24:23;;;;;;;6.57;3.63;;;;;;;9.93;71.96;101174.47;5053276;28;20042;-75
2022/10/20 06:26:48;;;;;;;19.08;4.32;;;;;;;10.72;71.75;101273.53;5082772;28;20032;-75
2022/10/20 06:29:16;;;;;;;8.13;3.25;;;;;;;10.82;71.32;101317.44;5052014;28;20036;-75
2022/10/20 06:31:44;;;;;;;10.77;4.03;;;;;;;10.72;71.53;101274.44;5061571;28;20101;-76
2022/10/20 06:34:13;;;;;;;8.25;2.72;;;;;;;10.49;70.64;101203.25;5069795;28;20036;-77
2022/10/20 06:36:40;;;;;;;7.82;2.65;;;;;;;11.33;70.07;101300.56;5068433;28;20559;-75
2022/10/20 06:39:16;;;;;;;20.30;3.95;;;;;;;11.08;70.28;101301.13;5068514;28;20132;-74
2022/10/20 06:41:43;;;;;;;13.98;4.57;;;;;;;10.63;69.48;101195.56;5066988;28;20032;-73
2022/10/20 06:44:08;;;;;;;8.77;4.07;;;;;;;11.43;68.36;101326.94;5049494;28;20044;-75
2022/10/20 06:46:35;;;;;;;8.35;3.10;;;;;;;11.45;67.62;101307.69;5075220;28;20361;-76
2022/10/20 06:49:06;;;;;;;5.60;2.97;;;;;;;11.52;67.03;101308.63;5082624;28;20082;-76
2022/10/20 06:51:34;;;;;;;15.02;3.05;;;;;;;11.46;66.64;101330.47;5067438;28;20053;-76
2022/10/20 06:54:00;;;;;;;5.78;2.38;;;;;;;11.32;67.38;101338.19;5066678;28;20048;-75
2022/10/20 06:56:28;;;;;;;6.28;3.45;;;;;;;11.42;66.35;101299.75;5038565;28;20079;-78
2022/10/20 06:58:55;;;;;;;7.05;2.83;;;;;;;11.62;65.46;101336.78;5067329;28;20036;-76
2022/10/20 07:01:29;;;;;;;5.10;3.00;;;;;;;11.61;65.17;101287.69;5052729;28;20439;-77
2022/10/20 07:03:57;;;;;;;13.75;3.67;;;;;;;11.70;65.03;101336.84;5045966;28;20163;-75
2022/10/20 07:06:27;;;;;;;5.82;2.55;;;;;;;11.66;65.01;101314.94;5067983;28;20032;-76
2022/10/20 07:09:02;;;;;;;6.20;2.80;;;;;;;11.90;64.90;101332.72;5067936;28;20055;-76
2022/10/20 07:11:30;;;;;;;7.28;2.80;;;;;;;11.78;65.02;101324.69;5068138;28;20052;-77
2022/10/20 07:13:57;;;;;;;12.80;4.15;;;;;;;11.52;64.80;101287.59;5067636;28;20081;-75
2022/10/20 07:16:25;;;;;;;6.35;2.40;;;;;;;11.26;65.18;101206.78;5064018;28;20036;-76
2022/10/20 07:18:51;;;;;;;10.55;2.90;;;;;;;11.63;64.03;101257.03;5065185;28;20124;-76
2022/10/20 07:21:19;;;;;;;22.08;4.80;;;;;;;11.44;63.81;101265.63;5027392;28;20152;-75
2022/10/20 07:23:45;;;;;;;12.85;3.50;;;;;;;11.90;62.92;101335.34;5027768;28;20063;-75
2022/10/20 07:26:14;;;;;;;14.63;3.22;;;;;;;11.25;63.59;101218.13;5029800;28;20156;-77
2022/10/20 07:28:42;;;;;;;7.00;2.53;;;;;;;11.54;63.48;101234.19;5061057;28;20036;-76
2022/10/20 07:31:35;;;;;;;18.85;2.90;;;;;;;11.57;62.24;101228.09;5067038;28;20477;-76
2022/10/20 07:34:01;;;;;;;5.07;2.63;;;;;;;11.51;61.47;101256.94;5067416;28;20094;-77
2022/10/20 07:36:29;;;;;;;7.05;2.28;;;;;;;12.09;61.97;101333.75;5029360;28;20065;-74
2022/10/20 07:38:57;;;;;;;27.00;3.13;;;;;;;12.31;61.08;101332.16;5028441;28;20045;-75
2022/10/20 07:41:24;;;;;;;5.38;2.45;;;;;;;11.76;60.39;101232.63;5047358;28;20068;-75
2022/10/20 07:43:50;;;;;;;5.78;2.15;;;;;;;12.41;61.33;101351.56;5041591;28;20029;-77
2022/10/20 07:46:16;;;;;;;9.85;2.65;;;;;;;12.45;61.48;101390.19;5047463;28;20033;-75
2022/10/20 07:48:43;;;;;;;8.27;2.25;;;;;;;11.88;60.66;101316.03;5046752;28;20045;-75
2022/10/20 07:51:23;;;;;;;13.65;3.40;;;;;;;11.87;60.73;101306.41;5022659;28;20124;-75
2022/10/20 07:53:50;;;;;;;5.97;3.15;;;;;;;12.54;60.91;101377.09;5045137;28;20064;-77
2022/10/20 07:56:16;;;;;;;10.60;2.83;;;;;;;11.89;60.43;101248.53;5050918;28;20052;-76
2022/10/20 07:58:42;;;;;;;22.40;2.65;;;;;;;12.80;59.68;101381.66;5062702;28;20051;-75
2022/10/20 08:01:09;;;;;;;8.93;2.20;;;;;;;12.07;60.12;101260.97;5072880;28;20040;-75
2022/10/20 08:03:36;;;;;;;5.70;2.70;;;;;;;11.82;60.56;101269.50;5077346;28;20051;-75
2022/10/20 08:06:04;;;;;;;6.95;2.13;;;;;;;11.90;60.34;101256.44;5066730;28;20052;-74
2022/10/20 08:08:29;;;;;;;11.85;2.63;;;;;;;12.40;59.98;101389.28;5049013;28;20032;-77
2022/10/20 08:10:57;;;;;;;11.82;2.85;;;;;;;12.41;59.95;101391.06;5066875;28;20044;-75
2022/10/20 08:13:23;;;;;;;17.20;3.28;;;;;;;12.72;59.94;101400.06;5048481;28;20020;-76
2022/10/20 08:15:49;;;;;;;9.05;3.03;;;;;;;12.41;60.03;101385.78;5066991;28;20094;-75
2022/10/20 08:18:14;;;;;;;6.53;2.63;;;;;;;12.22;58.98;101280.38;5066803;28;20044;-76
2022/10/20 08:20:40;;;;;;;6.10;2.75;;;;;;;12.39;59.38;101361.22;5050035;28;20103;-77
2022/10/20 08:23:05;;;;;;;6.75;2.92;;;;;;;12.97;59.77;101397.56;5046406;28;20040;-75
2022/10/20 08:25:32;;;;;;;6.30;2.22;;;;;;;12.85;59.09;101382.56;5050509;28;20109;-75
2022/10/20 08:27:57;;;;;;;12.75;3.42;;;;;;;12.75;58.69;101402.69;5042482;28;20139;-75
2022/10/20 08:30:22;;;;;;;15.07;3.47;;;;;;;12.67;58.63;101386.84;5064786;28;20139;-74
2022/10/20 08:32:52;;;;;;;17.40;3.10;;;;;;;12.85;58.19;101388.75;5066633;28;20052;-74
2022/10/20 08:35:18;;;;;;;7.30;1.85;;;;;;;12.48;58.80;101310.34;5066130;28;20037;-75
2022/10/20 08:37:44;;;;;;;5.00;2.40;;;;;;;13.30;58.60;101410.97;5066396;28;20050;-75
2022/10/20 08:40:16;;;;;;;12.18;3.35;;;;;;;12.99;57.97;101388.78;5067083;28;20024;-76
2022/10/20 08:42:46;;;;;;;5.77;2.37;;;;;;;13.22;57.62;101414.41;5064601;28;20033;-76
2022/10/20 08:45:18;;;;;;;20.40;2.67;;;;;;;13.40;56.91;101413.66;5054392;28;20060;-75
2022/10/20 08:47:45;;;;;;;17.83;2.95;;;;;;;12.53;57.08;101319.19;5066357;28;20071;-76
2022/10/20 08:50:15;;;;;;;9.73;3.33;;;;;;;13.06;56.79;101427.50;5068815;28;20044;-76
2022/10/20 08:52:41;;;;;;;6.78;2.33;;;;;;;13.00;57.87;101419.56;5073597;28;20032;-76
2022/10/20 08:55:18;;;;;;;6.30;1.92;;;;;;;13.15;57.38;101421.41;5070672;28;20041;-76
2022/10/20 08:57:50;;;;;;;9.82;2.95;;;;;;;12.73;57.43;101387.75;5071278;28;20847;-76
2022/10/20 09:00:19;;;;;;;21.05;2.92;;;;;;;12.54;57.28;101324.44;5084939;28;20070;-76
2022/10/20 09:02:47;;;;;;;14.68;2.20;;;;;;;13.02;57.14;101425.72;5066335;28;20041;-75
2022/10/20 09:05:15;;;;;;;3.70;2.25;;;;;;;12.46;57.00;101299.84;5079240;28;20040;-74
2022/10/20 09:07:41;;;;;;;17.02;3.58;;;;;;;12.65;57.04;101321.88;5070159;28;20024;-76
2022/10/20 09:10:15;;;;;;;6.75;2.90;;;;;;;13.21;56.59;101428.47;5069712;28;20550;-73
2022/10/20 09:12:42;;;;;;;10.82;4.00;;;;;;;13.37;55.85;101435.63;5069652;28;20113;-77
2022/10/20 09:15:13;;;;;;;12.43;2.28;;;;;;;12.85;55.85;101296.56;5067696;28;20441;-75
2022/10/20 09:18:01;;;;;;;3.85;2.17;;;;;;;13.14;56.05;101430.19;5072556;28;20048;-76
2022/10/20 09:20:52;;;;;;;4.28;2.15;;;;;;;13.14;56.21;101439.84;5073894;28;20063;-77
2022/10/20 09:23:21;;;;;;;6.75;2.20;;;;;;;12.29;56.47;101302.34;5059775;28;20049;-77
2022/10/20 09:25:49;;;;;;;5.53;2.38;;;;;;;13.18;55.53;101438.97;5081847;28;20032;-78
2022/10/20 09:28:26;;;;;;;15.25;2.63;;;;;;;11.62;56.09;101240.41;5090277;28;20016;-76
2022/10/20 09:30:53;;;;;;;9.65;2.92;;;;;;;12.70;55.81;101382.50;5071144;28;20051;-75
2022/10/20 09:33:22;;;;;;;9.93;2.45;;;;;;;12.62;55.96;101319.25;5089374;28;20112;-76
2022/10/20 09:35:48;;;;;;;7.95;1.80;;;;;;;12.78;56.08;101421.19;5066772;28;20147;-76
2022/10/20 09:38:21;;;;;;;6.22;2.13;;;;;;;13.20;55.85;101400.34;5090611;28;20044;-75
2022/10/20 09:41:17;;;;;;;8.82;1.70;;;;;;;13.13;54.91;101441.59;5079821;28;20056;-76
2022/10/20 09:43:54;;;;;;;7.43;2.25;;;;;;;12.29;55.52;101330.41;5074096;28;20124;-75
2022/10/20 09:46:23;;;;;;;15.88;2.58;;;;;;;12.52;55.51;101344.59;5087086;28;20161;-75
2022/10/20 09:48:50;;;;;;;6.20;2.17;;;;;;;12.40;55.28;101305.91;5064963;28;20063;-74
2022/10/20 09:51:24;;;;;;;7.15;3.20;;;;;;;12.75;54.74;101317.56;5063121;28;20048;-76
2022/10/20 09:53:58;;;;;;;4.80;2.28;;;;;;;12.85;55.22;101387.84;5068944;28;20098;-78
2022/10/20 09:56:30;;;;;;;7.55;3.00;;;;;;;13.48;55.28;101444.44;5068272;28;20442;-78
2022/10/20 09:58:57;;;;;;;4.05;2.47;;;;;;;13.47;53.58;101445.31;5067069;28;20472;-76
2022/10/20 10:01:23;;;;;;;17.05;1.83;;;;;;;13.16;54.93;101439.00;5051047;28;20024;-76
2022/10/20 10:04:00;;;;;;;4.70;1.80;;;;;;;13.32;54.38;101460.19;5084044;28;20060;-76
2022/10/20 10:06:28;;;;;;;4.53;2.65;;;;;;;13.30;54.57;101442.63;5087748;28;20240;-75
2022/10/20 10:08:56;;;;;;;2.70;1.63;;;;;;;13.36;53.81;101427.69;5089164;28;20093;-76
2022/10/20 10:11:27;;;;;;;8.05;2.15;;;;;;;13.76;53.63;101435.78;5078017;28;20097;-76
2022/10/20 10:13:53;;;;;;;7.25;2.05;;;;;;;13.73;53.68;101442.78;5087663;28;20063;-76
2022/10/20 10:16:24;;;;;;;4.13;1.63;;;;;;;13.95;53.02;101445.50;5071229;28;20032;-75
2022/10/20 10:19:00;;;;;;;17.58;3.47;;;;;;;14.06;53.20;101437.63;5067619;28;20071;-77
2022/10/20 10:21:27;;;;;;;14.23;1.55;;;;;;;13.47;53.63;101423.34;5048421;28;20053;-77
2022/10/20 10:24:02;;;;;;;8.43;2.70;;;;;;;13.67;53.60;101384.75;5037949;28;20395;-77
2022/10/20 10:26:36;;;;;;;15.07;2.90;;;;;;;14.33;53.63;101436.78;5068188;28;20097;-75
2022/10/20 10:29:02;;;;;;;3.95;1.60;;;;;;;13.73;52.32;101318.81;5068332;28;20028;-78
2022/10/20 10:31:28;;;;;;;6.60;2.35;;;;;;;13.98;51.88;101325.88;5067359;28;20483;-77
2022/10/20 10:34:21;;;;;;;14.45;2.60;;;;;;;14.29;52.31;101437.66;5084958;28;20127;-76
2022/10/20 10:36:46;;;;;;;9.88;2.38;;;;;;;13.90;52.61;101318.84;5086520;28;20090;-76
2022/10/20 10:39:14;;;;;;;6.75;2.38;;;;;;;14.44;52.23;101427.09;5083987;28;20064;-77
2022/10/20 10:41:51;;;;;;;12.48;2.92;;;;;;;14.77;51.70;101430.63;5049658;28;20040;-74
2022/10/20 10:44:46;;;;;;;14.18;2.88;;;;;;;14.58;51.25;101429.78;5068413;28;20139;-76
2022/10/20 10:47:36;;;;;;;21.10;4.53;;;;;;;14.50;50.65;101423.59;5067230;28;20061;-75
2022/10/20 10:50:14;;;;;;;13.73;2.28;;;;;;;14.47;51.60;101411.28;5037387;28;20484;-76
2022/10/20 10:52:57;;;;;;;16.85;2.55;;;;;;;15.03;51.02;101401.56;5067909;28;20039;-76
2022/10/20 10:55:28;;;;;;;6.57;1.67;;;;;;;14.54;50.53;101401.63;5067700;28;20819;-76
2022/10/20 10:57:57;;;;;;;3.45;2.03;;;;;;;15.08;50.74;101402.41;5047957;28;20057;-76
2022/10/20 11:00:58;;;;;;;22.13;3.60;;;;;;;14.05;50.57;101286.31;5087516;28;20529;-75
2022/10/20 11:03:43;;;;;;;12.20;2.30;;;;;;;14.86;49.83;101398.03;5086794;28;20097;-74
2022/10/20 11:06:20;;;;;;;12.55;2.65;;;;;;;15.07;49.12;101399.75;5087440;28;20582;-76
2022/10/20 11:08:45;;;;;;;7.30;3.28;;;;;;;14.53;50.13;101397.16;5074575;28;20040;-77
2022/10/20 11:11:29;;;;;;;8.60;2.53;;;;;;;14.79;50.07;101397.16;5051629;28;20048;-76
2022/10/20 11:14:10;;;;;;;6.85;2.03;;;;;;;15.05;48.78;101391.81;5086617;28;20024;-77
2022/10/20 11:17:06;;;;;;;6.30;2.47;;;;;;;14.78;49.11;101384.84;5088025;28;20118;-76
2022/10/20 11:19:59;;;;;;;15.50;3.03;;;;;;;15.15;48.86;101376.84;5077927;28;20033;-76
2022/10/20 11:22:44;;;;;;;14.63;2.60;;;;;;;14.80;49.01;101369.88;5035440;28;20047;-76
2022/10/20 11:25:18;;;;;;;12.88;2.85;;;;;;;14.14;48.26;101275.75;5088273;28;20579;-76
2022/10/20 11:27:44;;;;;;;4.43;2.30;;;;;;;14.36;49.38;101376.06;5080179;28;20036;-76
2022/10/20 11:30:20;;;;;;;12.25;3.45;;;;;;;14.28;48.95;101254.63;5069833;28;20024;-78
2022/10/20 11:33:11;;;;;;;20.48;2.40;;;;;;;14.83;49.05;101369.00;5084455;28;20070;-77